sensor_id;sensor_type;location;lat;lon;timestamp;temperature;humidity
21648;DHT22;10985;54.182;7.890;2023-06-26T00:01:49;20.80;99.90
21648;DHT22;10985;54.182;7.890;2023-06-26T00:04:15;20.80;99.90
21648;DHT22;10985;54.182;7.890;2023-06-26T00:06:41;20.80;99.90
21648;DHT22;10985;54.182;7.890;2023-06-26T00:09:07;20.80;99.90
21648;DHT22;10985;54.182;7.890;2023-06-26T00:11:32;20.80;99.90
21648;DHT22;10985;54.182;7.890;2023-06-26T00:13:59;20.80;99.90
21648;DHT22;10985;54.182;7.890;2023-06-26T00:16:26;20.70;99.90
21648;DHT22;10985;54.182;7.890;2023-06-26T00:18:52;20.70;99.90
21648;DHT22;10985;54.182;7.890;2023-06-26T00:21:18;20.70;99.90
21648;DHT22;10985;54.182;7.890;2023-06-26T00:23:44;20.70;99.90
21648;DHT22;10985;54.182;7.890;2023-06-26T00:26:10;20.60;99.90
21648;DHT22;10985;54.182;7.890;2023-06-26T00:28:36;20.70;99.90
21648;DHT22;10985;54.182;7.890;2023-06-26T00:31:01;20.60;99.90
21648;DHT22;10985;54.182;7.890;2023-06-26T00:33:27;20.60;99.90
21648;DHT22;10985;54.182;7.890;2023-06-26T00:35:52;20.60;99.90
21648;DHT22;10985;54.182;7.890;2023-06-26T00:38:18;20.60;99.90
21648;DHT22;10985;54.182;7.890;2023-06-26T00:40:43;20.60;99.90
21648;DHT22;10985;54.182;7.890;2023-06-26T00:43:09;20.60;99.90
21648;DHT22;10985;54.182;7.890;2023-06-26T00:45:34;20.50;99.90
21648;DHT22;10985;54.182;7.890;2023-06-26T00:48:01;20.50;99.90
21648;DHT22;10985;54.182;7.890;2023-06-26T00:50:27;20.50;99.90
21648;DHT22;10985;54.182;7.890;2023-06-26T00:52:53;20.50;99.90
21648;DHT22;10985;54.182;7.890;2023-06-26T00:55:22;20.40;99.90
21648;DHT22;10985;54.182;7.890;2023-06-26T00:57:47;20.40;99.90
21648;DHT22;10985;54.182;7.890;2023-06-26T01:00:14;20.40;99.90
21648;DHT22;10985;54.182;7.890;2023-06-26T01:02:39;20.40;99.90
21648;DHT22;10985;54.182;7.890;2023-06-26T01:05:06;20.40;99.90
21648;DHT22;10985;54.182;7.890;2023-06-26T01:07:36;20.40;99.90
21648;DHT22;10985;54.182;7.890;2023-06-26T01:10:06;20.30;99.90
21648;DHT22;10985;54.182;7.890;2023-06-26T01:12:33;20.30;99.90
21648;DHT22;10985;54.182;7.890;2023-06-26T01:14:59;20.30;99.90
21648;DHT22;10985;54.182;7.890;2023-06-26T01:17:27;20.30;99.90
21648;DHT22;10985;54.182;7.890;2023-06-26T01:19:59;20.30;99.90
21648;DHT22;10985;54.182;7.890;2023-06-26T01:22:47;20.20;99.90
21648;DHT22;10985;54.182;7.890;2023-06-26T01:28:04;20.20;99.90
21648;DHT22;10985;54.182;7.890;2023-06-26T01:30:31;20.20;99.90
21648;DHT22;10985;54.182;7.890;2023-06-26T01:32:57;20.20;99.90
21648;DHT22;10985;54.182;7.890;2023-06-26T01:35:23;20.20;99.90
21648;DHT22;10985;54.182;7.890;2023-06-26T01:37:50;20.20;99.90
21648;DHT22;10985;54.182;7.890;2023-06-26T01:40:16;20.20;99.90
21648;DHT22;10985;54.182;7.890;2023-06-26T01:42:42;20.20;99.90
21648;DHT22;10985;54.182;7.890;2023-06-26T01:45:14;20.20;99.90
21648;DHT22;10985;54.182;7.890;2023-06-26T01:47:50;20.10;99.90
21648;DHT22;10985;54.182;7.890;2023-06-26T01:50:23;20.10;99.90
21648;DHT22;10985;54.182;7.890;2023-06-26T01:53:13;20.20;99.90
21648;DHT22;10985;54.182;7.890;2023-06-26T01:56:06;20.20;99.90
21648;DHT22;10985;54.182;7.890;2023-06-26T01:58:33;20.20;99.90
21648;DHT22;10985;54.182;7.890;2023-06-26T02:00:59;20.20;99.90
21648;DHT22;10985;54.182;7.890;2023-06-26T02:03:25;20.20;99.90
21648;DHT22;10985;54.182;7.890;2023-06-26T02:05:50;20.20;99.90
21648;DHT22;10985;54.182;7.890;2023-06-26T02:08:16;20.20;99.90
21648;DHT22;10985;54.182;7.890;2023-06-26T02:10:42;20.20;99.90
21648;DHT22;10985;54.182;7.890;2023-06-26T02:13:07;20.10;99.90
21648;DHT22;10985;54.182;7.890;2023-06-26T02:15:33;20.10;99.90
21648;DHT22;10985;54.182;7.890;2023-06-26T02:17:58;20.10;99.90
21648;DHT22;10985;54.182;7.890;2023-06-26T02:20:24;20.10;99.90
21648;DHT22;10985;54.182;7.890;2023-06-26T02:22:49;20.10;99.90
21648;DHT22;10985;54.182;7.890;2023-06-26T02:25:15;20.10;99.90
21648;DHT22;10985;54.182;7.890;2023-06-26T02:27:40;20.10;99.90
21648;DHT22;10985;54.182;7.890;2023-06-26T02:30:08;20.10;99.90
21648;DHT22;10985;54.182;7.890;2023-06-26T02:32:34;20.10;99.90
21648;DHT22;10985;54.182;7.890;2023-06-26T02:34:59;20.10;99.90
21648;DHT22;10985;54.182;7.890;2023-06-26T02:37:25;20.00;99.90
21648;DHT22;10985;54.182;7.890;2023-06-26T02:39:50;20.00;99.90
21648;DHT22;10985;54.182;7.890;2023-06-26T02:42:16;20.00;99.90
21648;DHT22;10985;54.182;7.890;2023-06-26T02:44:41;20.00;99.90
21648;DHT22;10985;54.182;7.890;2023-06-26T02:47:07;20.00;99.90
21648;DHT22;10985;54.182;7.890;2023-06-26T02:49:32;20.00;99.90
21648;DHT22;10985;54.182;7.890;2023-06-26T02:51:58;20.00;99.90
21648;DHT22;10985;54.182;7.890;2023-06-26T02:54:23;20.00;99.90
21648;DHT22;10985;54.182;7.890;2023-06-26T02:56:49;20.00;99.90
21648;DHT22;10985;54.182;7.890;2023-06-26T02:59:14;20.00;99.90
21648;DHT22;10985;54.182;7.890;2023-06-26T03:01:40;19.90;99.90
21648;DHT22;10985;54.182;7.890;2023-06-26T03:04:06;19.90;99.90
21648;DHT22;10985;54.182;7.890;2023-06-26T03:06:31;19.90;99.90
21648;DHT22;10985;54.182;7.890;2023-06-26T03:08:57;19.90;99.90
21648;DHT22;10985;54.182;7.890;2023-06-26T03:11:22;19.90;99.90
21648;DHT22;10985;54.182;7.890;2023-06-26T03:13:48;19.90;99.90
21648;DHT22;10985;54.182;7.890;2023-06-26T03:16:13;19.90;99.90
21648;DHT22;10985;54.182;7.890;2023-06-26T03:18:39;19.90;99.90
21648;DHT22;10985;54.182;7.890;2023-06-26T03:21:04;19.90;99.90
21648;DHT22;10985;54.182;7.890;2023-06-26T03:23:30;19.90;99.90
21648;DHT22;10985;54.182;7.890;2023-06-26T03:25:55;19.90;99.90
21648;DHT22;10985;54.182;7.890;2023-06-26T03:28:21;19.90;99.90
21648;DHT22;10985;54.182;7.890;2023-06-26T03:30:46;19.90;99.90
21648;DHT22;10985;54.182;7.890;2023-06-26T03:33:12;19.90;99.90
21648;DHT22;10985;54.182;7.890;2023-06-26T03:35:37;20.00;99.90
21648;DHT22;10985;54.182;7.890;2023-06-26T03:38:04;20.00;99.90
21648;DHT22;10985;54.182;7.890;2023-06-26T03:40:30;20.00;99.90
21648;DHT22;10985;54.182;7.890;2023-06-26T03:42:55;20.00;99.90
21648;DHT22;10985;54.182;7.890;2023-06-26T03:45:21;20.10;99.90
21648;DHT22;10985;54.182;7.890;2023-06-26T03:47:46;20.10;99.90
21648;DHT22;10985;54.182;7.890;2023-06-26T03:50:17;20.10;99.90
21648;DHT22;10985;54.182;7.890;2023-06-26T03:52:43;20.10;99.90
21648;DHT22;10985;54.182;7.890;2023-06-26T03:55:08;20.20;99.90
21648;DHT22;10985;54.182;7.890;2023-06-26T03:57:34;20.20;99.90
21648;DHT22;10985;54.182;7.890;2023-06-26T04:00:00;20.30;99.90
21648;DHT22;10985;54.182;7.890;2023-06-26T04:02:25;20.30;99.90
21648;DHT22;10985;54.182;7.890;2023-06-26T04:04:51;20.30;99.90
21648;DHT22;10985;54.182;7.890;2023-06-26T04:07:18;20.30;99.90
21648;DHT22;10985;54.182;7.890;2023-06-26T04:09:44;20.30;99.90
21648;DHT22;10985;54.182;7.890;2023-06-26T04:12:09;20.40;99.90
21648;DHT22;10985;54.182;7.890;2023-06-26T04:14:35;20.40;99.90
21648;DHT22;10985;54.182;7.890;2023-06-26T04:17:01;20.50;99.90
21648;DHT22;10985;54.182;7.890;2023-06-26T04:19:28;20.50;99.90
21648;DHT22;10985;54.182;7.890;2023-06-26T04:21:54;20.50;99.90
21648;DHT22;10985;54.182;7.890;2023-06-26T04:24:20;20.60;99.90
21648;DHT22;10985;54.182;7.890;2023-06-26T04:26:45;20.60;99.90
21648;DHT22;10985;54.182;7.890;2023-06-26T04:29:11;20.60;99.90
21648;DHT22;10985;54.182;7.890;2023-06-26T04:31:36;20.60;99.90
21648;DHT22;10985;54.182;7.890;2023-06-26T04:34:02;20.70;99.90
21648;DHT22;10985;54.182;7.890;2023-06-26T04:36:27;20.70;99.90
21648;DHT22;10985;54.182;7.890;2023-06-26T04:38:54;20.70;99.90
21648;DHT22;10985;54.182;7.890;2023-06-26T04:41:21;20.80;99.90
21648;DHT22;10985;54.182;7.890;2023-06-26T04:43:46;20.80;99.90
21648;DHT22;10985;54.182;7.890;2023-06-26T04:46:12;20.80;99.90
21648;DHT22;10985;54.182;7.890;2023-06-26T04:48:37;20.80;99.90
21648;DHT22;10985;54.182;7.890;2023-06-26T04:51:03;20.80;99.90
21648;DHT22;10985;54.182;7.890;2023-06-26T04:53:28;20.90;99.90
21648;DHT22;10985;54.182;7.890;2023-06-26T04:55:54;20.90;99.90
21648;DHT22;10985;54.182;7.890;2023-06-26T04:58:20;20.90;99.90
21648;DHT22;10985;54.182;7.890;2023-06-26T05:00:45;21.00;99.90
21648;DHT22;10985;54.182;7.890;2023-06-26T05:03:16;21.00;99.90
21648;DHT22;10985;54.182;7.890;2023-06-26T05:05:42;21.00;99.90
21648;DHT22;10985;54.182;7.890;2023-06-26T05:08:21;21.00;99.90
21648;DHT22;10985;54.182;7.890;2023-06-26T05:10:46;21.00;99.90
21648;DHT22;10985;54.182;7.890;2023-06-26T05:13:12;21.00;99.90
21648;DHT22;10985;54.182;7.890;2023-06-26T05:15:41;21.00;99.90
21648;DHT22;10985;54.182;7.890;2023-06-26T05:18:07;20.90;99.90
21648;DHT22;10985;54.182;7.890;2023-06-26T05:20:34;20.90;99.90
21648;DHT22;10985;54.182;7.890;2023-06-26T05:23:04;21.00;99.90
21648;DHT22;10985;54.182;7.890;2023-06-26T05:25:30;21.00;99.90
21648;DHT22;10985;54.182;7.890;2023-06-26T05:27:57;21.00;99.90
21648;DHT22;10985;54.182;7.890;2023-06-26T05:30:27;21.10;99.90
21648;DHT22;10985;54.182;7.890;2023-06-26T05:32:53;21.30;99.90
21648;DHT22;10985;54.182;7.890;2023-06-26T05:35:22;21.40;99.90
21648;DHT22;10985;54.182;7.890;2023-06-26T05:37:51;21.60;99.90
21648;DHT22;10985;54.182;7.890;2023-06-26T05:40:17;21.80;99.90
21648;DHT22;10985;54.182;7.890;2023-06-26T05:42:43;21.90;99.90
21648;DHT22;10985;54.182;7.890;2023-06-26T05:45:09;22.00;99.90
21648;DHT22;10985;54.182;7.890;2023-06-26T05:47:35;22.00;99.90
21648;DHT22;10985;54.182;7.890;2023-06-26T05:50:01;21.90;99.90
21648;DHT22;10985;54.182;7.890;2023-06-26T05:52:27;21.90;99.90
21648;DHT22;10985;54.182;7.890;2023-06-26T05:54:56;21.90;99.90
21648;DHT22;10985;54.182;7.890;2023-06-26T05:57:27;21.90;99.90
21648;DHT22;10985;54.182;7.890;2023-06-26T05:59:53;21.80;99.90
21648;DHT22;10985;54.182;7.890;2023-06-26T06:02:19;21.80;99.90
21648;DHT22;10985;54.182;7.890;2023-06-26T06:04:45;21.80;99.90
21648;DHT22;10985;54.182;7.890;2023-06-26T06:07:10;21.80;99.90
21648;DHT22;10985;54.182;7.890;2023-06-26T06:09:36;21.80;99.90
21648;DHT22;10985;54.182;7.890;2023-06-26T06:12:06;21.90;99.90
21648;DHT22;10985;54.182;7.890;2023-06-26T06:14:35;22.00;99.90
21648;DHT22;10985;54.182;7.890;2023-06-26T06:17:01;22.00;99.90
21648;DHT22;10985;54.182;7.890;2023-06-26T06:19:26;22.10;99.90
21648;DHT22;10985;54.182;7.890;2023-06-26T06:21:52;22.10;99.90
21648;DHT22;10985;54.182;7.890;2023-06-26T06:24:17;22.30;99.90
21648;DHT22;10985;54.182;7.890;2023-06-26T06:26:43;22.40;99.90
21648;DHT22;10985;54.182;7.890;2023-06-26T06:29:09;22.50;99.90
21648;DHT22;10985;54.182;7.890;2023-06-26T06:31:34;22.70;99.90
21648;DHT22;10985;54.182;7.890;2023-06-26T06:34:00;22.70;99.90
21648;DHT22;10985;54.182;7.890;2023-06-26T06:36:25;22.80;99.90
21648;DHT22;10985;54.182;7.890;2023-06-26T06:38:51;22.90;99.90
21648;DHT22;10985;54.182;7.890;2023-06-26T06:41:16;22.80;99.90
21648;DHT22;10985;54.182;7.890;2023-06-26T06:43:42;22.80;99.90
21648;DHT22;10985;54.182;7.890;2023-06-26T06:46:08;22.80;99.90
21648;DHT22;10985;54.182;7.890;2023-06-26T06:48:34;22.70;99.90
21648;DHT22;10985;54.182;7.890;2023-06-26T06:50:59;22.60;99.90
21648;DHT22;10985;54.182;7.890;2023-06-26T06:53:25;22.50;99.90
21648;DHT22;10985;54.182;7.890;2023-06-26T06:55:50;22.40;99.90
21648;DHT22;10985;54.182;7.890;2023-06-26T06:58:16;22.30;99.90
21648;DHT22;10985;54.182;7.890;2023-06-26T07:00:45;22.30;99.90
21648;DHT22;10985;54.182;7.890;2023-06-26T07:03:11;22.20;99.90
21648;DHT22;10985;54.182;7.890;2023-06-26T07:05:37;22.10;99.90
21648;DHT22;10985;54.182;7.890;2023-06-26T07:08:03;22.10;99.90
21648;DHT22;10985;54.182;7.890;2023-06-26T07:10:29;22.10;99.90
21648;DHT22;10985;54.182;7.890;2023-06-26T07:12:54;22.10;99.90
21648;DHT22;10985;54.182;7.890;2023-06-26T07:15:20;22.10;99.90
21648;DHT22;10985;54.182;7.890;2023-06-26T07:17:46;22.10;99.90
21648;DHT22;10985;54.182;7.890;2023-06-26T07:20:11;22.20;99.90
21648;DHT22;10985;54.182;7.890;2023-06-26T07:22:41;22.10;99.90
21648;DHT22;10985;54.182;7.890;2023-06-26T07:25:07;22.00;99.90
21648;DHT22;10985;54.182;7.890;2023-06-26T07:27:36;21.90;99.90
21648;DHT22;10985;54.182;7.890;2023-06-26T07:30:02;21.70;99.90
21648;DHT22;10985;54.182;7.890;2023-06-26T07:32:27;21.70;99.90
21648;DHT22;10985;54.182;7.890;2023-06-26T07:34:53;21.60;99.90
21648;DHT22;10985;54.182;7.890;2023-06-26T07:37:18;21.30;99.90
21648;DHT22;10985;54.182;7.890;2023-06-26T07:39:44;21.20;99.90
21648;DHT22;10985;54.182;7.890;2023-06-26T07:42:10;20.90;99.90
21648;DHT22;10985;54.182;7.890;2023-06-26T07:44:35;20.80;99.90
21648;DHT22;10985;54.182;7.890;2023-06-26T07:47:00;20.60;99.90
21648;DHT22;10985;54.182;7.890;2023-06-26T07:49:26;20.50;99.90
21648;DHT22;10985;54.182;7.890;2023-06-26T07:51:51;20.40;99.90
21648;DHT22;10985;54.182;7.890;2023-06-26T07:54:17;20.20;99.90
21648;DHT22;10985;54.182;7.890;2023-06-26T07:56:58;20.20;99.90
21648;DHT22;10985;54.182;7.890;2023-06-26T07:59:26;20.10;99.90
21648;DHT22;10985;54.182;7.890;2023-06-26T08:01:53;20.00;99.90
21648;DHT22;10985;54.182;7.890;2023-06-26T08:04:20;19.90;99.90
21648;DHT22;10985;54.182;7.890;2023-06-26T08:06:54;19.90;99.90
21648;DHT22;10985;54.182;7.890;2023-06-26T08:09:22;19.90;99.90
21648;DHT22;10985;54.182;7.890;2023-06-26T08:11:48;20.00;99.90
21648;DHT22;10985;54.182;7.890;2023-06-26T08:14:14;20.00;99.90
21648;DHT22;10985;54.182;7.890;2023-06-26T08:16:40;20.00;99.90
21648;DHT22;10985;54.182;7.890;2023-06-26T08:19:06;20.00;99.90
21648;DHT22;10985;54.182;7.890;2023-06-26T08:21:31;20.00;99.90
21648;DHT22;10985;54.182;7.890;2023-06-26T08:23:57;20.10;99.90
21648;DHT22;10985;54.182;7.890;2023-06-26T08:26:23;20.20;99.90
21648;DHT22;10985;54.182;7.890;2023-06-26T08:28:48;20.30;99.90
21648;DHT22;10985;54.182;7.890;2023-06-26T08:31:14;20.50;99.90
21648;DHT22;10985;54.182;7.890;2023-06-26T08:33:39;20.60;99.90
21648;DHT22;10985;54.182;7.890;2023-06-26T08:36:05;20.70;99.90
21648;DHT22;10985;54.182;7.890;2023-06-26T08:38:30;20.80;99.90
21648;DHT22;10985;54.182;7.890;2023-06-26T08:40:56;21.00;99.90
21648;DHT22;10985;54.182;7.890;2023-06-26T08:43:22;21.20;99.90
21648;DHT22;10985;54.182;7.890;2023-06-26T08:45:48;21.30;99.90
21648;DHT22;10985;54.182;7.890;2023-06-26T08:48:17;21.50;99.90
21648;DHT22;10985;54.182;7.890;2023-06-26T08:50:43;21.80;99.90
21648;DHT22;10985;54.182;7.890;2023-06-26T08:53:36;22.10;99.90
21648;DHT22;10985;54.182;7.890;2023-06-26T08:56:05;22.60;99.90
21648;DHT22;10985;54.182;7.890;2023-06-26T08:58:32;23.10;99.90
21648;DHT22;10985;54.182;7.890;2023-06-26T09:00:58;23.50;99.90
21648;DHT22;10985;54.182;7.890;2023-06-26T09:03:24;23.90;99.90
21648;DHT22;10985;54.182;7.890;2023-06-26T09:05:51;24.20;99.90
21648;DHT22;10985;54.182;7.890;2023-06-26T09:08:16;24.30;99.90
21648;DHT22;10985;54.182;7.890;2023-06-26T09:10:42;24.50;99.90
21648;DHT22;10985;54.182;7.890;2023-06-26T09:13:07;24.80;99.90
21648;DHT22;10985;54.182;7.890;2023-06-26T09:15:54;25.00;99.90
21648;DHT22;10985;54.182;7.890;2023-06-26T09:18:20;25.40;99.90
21648;DHT22;10985;54.182;7.890;2023-06-26T09:20:47;25.90;99.90
21648;DHT22;10985;54.182;7.890;2023-06-26T09:23:13;26.40;99.90
21648;DHT22;10985;54.182;7.890;2023-06-26T09:25:40;27.00;99.90
21648;DHT22;10985;54.182;7.890;2023-06-26T09:28:05;27.50;99.90
21648;DHT22;10985;54.182;7.890;2023-06-26T09:30:34;27.90;99.90
21648;DHT22;10985;54.182;7.890;2023-06-26T09:33:17;28.20;99.90
21648;DHT22;10985;54.182;7.890;2023-06-26T09:35:46;28.40;99.90
21648;DHT22;10985;54.182;7.890;2023-06-26T09:38:13;28.80;99.90
21648;DHT22;10985;54.182;7.890;2023-06-26T09:40:39;29.10;99.90
21648;DHT22;10985;54.182;7.890;2023-06-26T09:43:05;29.30;99.90
21648;DHT22;10985;54.182;7.890;2023-06-26T09:45:35;29.60;99.90
21648;DHT22;10985;54.182;7.890;2023-06-26T09:48:04;29.70;99.90
21648;DHT22;10985;54.182;7.890;2023-06-26T09:50:32;29.90;99.90
21648;DHT22;10985;54.182;7.890;2023-06-26T09:53:07;30.10;99.90
21648;DHT22;10985;54.182;7.890;2023-06-26T09:55:37;30.10;99.90
21648;DHT22;10985;54.182;7.890;2023-06-26T09:58:03;30.10;99.90
21648;DHT22;10985;54.182;7.890;2023-06-26T10:00:32;30.40;99.90
21648;DHT22;10985;54.182;7.890;2023-06-26T10:02:59;30.60;99.90
21648;DHT22;10985;54.182;7.890;2023-06-26T10:05:24;30.70;99.90
21648;DHT22;10985;54.182;7.890;2023-06-26T10:07:51;30.80;99.90
21648;DHT22;10985;54.182;7.890;2023-06-26T10:10:18;31.00;99.90
21648;DHT22;10985;54.182;7.890;2023-06-26T10:12:48;30.90;99.90
21648;DHT22;10985;54.182;7.890;2023-06-26T10:15:14;31.20;99.90
21648;DHT22;10985;54.182;7.890;2023-06-26T10:17:43;31.30;99.90
21648;DHT22;10985;54.182;7.890;2023-06-26T10:20:14;31.50;99.90
21648;DHT22;10985;54.182;7.890;2023-06-26T10:22:44;31.70;99.90
21648;DHT22;10985;54.182;7.890;2023-06-26T10:25:11;31.80;99.90
21648;DHT22;10985;54.182;7.890;2023-06-26T10:27:41;32.00;99.90
21648;DHT22;10985;54.182;7.890;2023-06-26T10:30:14;32.30;99.90
21648;DHT22;10985;54.182;7.890;2023-06-26T10:32:41;32.70;99.90
21648;DHT22;10985;54.182;7.890;2023-06-26T10:35:10;32.80;99.90
21648;DHT22;10985;54.182;7.890;2023-06-26T10:37:44;33.00;99.90
21648;DHT22;10985;54.182;7.890;2023-06-26T10:40:10;33.20;99.90
21648;DHT22;10985;54.182;7.890;2023-06-26T10:42:37;33.40;99.90
21648;DHT22;10985;54.182;7.890;2023-06-26T10:45:17;33.60;99.90
21648;DHT22;10985;54.182;7.890;2023-06-26T10:47:46;33.50;99.90
21648;DHT22;10985;54.182;7.890;2023-06-26T10:50:35;33.80;99.90
21648;DHT22;10985;54.182;7.890;2023-06-26T10:53:30;33.90;99.90
21648;DHT22;10985;54.182;7.890;2023-06-26T10:56:04;34.20;99.90
21648;DHT22;10985;54.182;7.890;2023-06-26T10:58:40;34.20;99.90
21648;DHT22;10985;54.182;7.890;2023-06-26T11:03:38;34.20;99.90
21648;DHT22;10985;54.182;7.890;2023-06-26T11:06:20;34.00;99.90
21648;DHT22;10985;54.182;7.890;2023-06-26T11:08:47;34.10;99.90
21648;DHT22;10985;54.182;7.890;2023-06-26T11:11:14;34.10;99.90
21648;DHT22;10985;54.182;7.890;2023-06-26T11:13:40;34.00;99.90
21648;DHT22;10985;54.182;7.890;2023-06-26T11:16:06;34.10;99.90
21648;DHT22;10985;54.182;7.890;2023-06-26T11:18:32;34.10;99.90
21648;DHT22;10985;54.182;7.890;2023-06-26T11:21:07;33.90;99.90
21648;DHT22;10985;54.182;7.890;2023-06-26T11:23:36;34.20;99.90
21648;DHT22;10985;54.182;7.890;2023-06-26T11:26:16;34.40;99.90
21648;DHT22;10985;54.182;7.890;2023-06-26T11:28:53;34.60;99.90
21648;DHT22;10985;54.182;7.890;2023-06-26T11:31:34;34.80;99.90
21648;DHT22;10985;54.182;7.890;2023-06-26T11:34:01;35.10;99.30
21648;DHT22;10985;54.182;7.890;2023-06-26T11:36:28;35.30;99.30
21648;DHT22;10985;54.182;7.890;2023-06-26T11:38:55;35.40;99.00
21648;DHT22;10985;54.182;7.890;2023-06-26T11:41:21;35.20;98.80
21648;DHT22;10985;54.182;7.890;2023-06-26T11:43:47;35.40;98.50
21648;DHT22;10985;54.182;7.890;2023-06-26T11:46:13;35.50;98.10
21648;DHT22;10985;54.182;7.890;2023-06-26T11:48:41;35.50;96.80
21648;DHT22;10985;54.182;7.890;2023-06-26T11:51:06;35.50;97.20
21648;DHT22;10985;54.182;7.890;2023-06-26T11:53:39;35.50;97.10
21648;DHT22;10985;54.182;7.890;2023-06-26T11:56:14;35.70;97.20
21648;DHT22;10985;54.182;7.890;2023-06-26T11:59:05;35.90;96.90
21648;DHT22;10985;54.182;7.890;2023-06-26T12:01:34;35.90;96.70
21648;DHT22;10985;54.182;7.890;2023-06-26T12:04:02;36.00;95.70
21648;DHT22;10985;54.182;7.890;2023-06-26T12:06:29;35.90;95.70
21648;DHT22;10985;54.182;7.890;2023-06-26T12:08:58;36.00;95.80
21648;DHT22;10985;54.182;7.890;2023-06-26T12:11:24;36.00;95.20
21648;DHT22;10985;54.182;7.890;2023-06-26T12:13:50;35.80;95.20
21648;DHT22;10985;54.182;7.890;2023-06-26T12:16:16;36.00;95.10
21648;DHT22;10985;54.182;7.890;2023-06-26T12:18:42;36.00;95.10
21648;DHT22;10985;54.182;7.890;2023-06-26T12:21:07;36.10;95.00
21648;DHT22;10985;54.182;7.890;2023-06-26T12:23:33;36.00;94.50
21648;DHT22;10985;54.182;7.890;2023-06-26T12:26:17;36.20;94.10
21648;DHT22;10985;54.182;7.890;2023-06-26T12:28:44;36.10;93.70
21648;DHT22;10985;54.182;7.890;2023-06-26T12:31:20;36.20;94.20
21648;DHT22;10985;54.182;7.890;2023-06-26T12:33:45;36.00;94.40
21648;DHT22;10985;54.182;7.890;2023-06-26T12:36:12;36.00;94.00
21648;DHT22;10985;54.182;7.890;2023-06-26T12:38:38;36.00;93.60
21648;DHT22;10985;54.182;7.890;2023-06-26T12:41:04;35.60;94.60
21648;DHT22;10985;54.182;7.890;2023-06-26T12:43:29;35.50;94.60
21648;DHT22;10985;54.182;7.890;2023-06-26T12:45:55;35.30;94.80
21648;DHT22;10985;54.182;7.890;2023-06-26T12:48:22;35.00;95.30
21648;DHT22;10985;54.182;7.890;2023-06-26T12:50:47;34.80;95.80
21648;DHT22;10985;54.182;7.890;2023-06-26T12:53:13;34.40;95.50
21648;DHT22;10985;54.182;7.890;2023-06-26T12:55:39;34.10;96.00
21648;DHT22;10985;54.182;7.890;2023-06-26T12:58:04;33.90;96.20
21648;DHT22;10985;54.182;7.890;2023-06-26T13:00:30;33.80;96.60
21648;DHT22;10985;54.182;7.890;2023-06-26T13:02:57;33.50;96.50
21648;DHT22;10985;54.182;7.890;2023-06-26T13:05:23;33.30;97.20
21648;DHT22;10985;54.182;7.890;2023-06-26T13:07:49;33.10;97.80
21648;DHT22;10985;54.182;7.890;2023-06-26T13:10:15;32.80;98.50
21648;DHT22;10985;54.182;7.890;2023-06-26T13:12:40;32.30;99.30
21648;DHT22;10985;54.182;7.890;2023-06-26T13:15:06;31.90;99.70
21648;DHT22;10985;54.182;7.890;2023-06-26T13:17:32;31.60;99.90
21648;DHT22;10985;54.182;7.890;2023-06-26T13:19:58;31.20;99.90
21648;DHT22;10985;54.182;7.890;2023-06-26T13:22:23;30.90;99.90
21648;DHT22;10985;54.182;7.890;2023-06-26T13:24:49;30.30;99.90
21648;DHT22;10985;54.182;7.890;2023-06-26T13:27:14;30.10;99.90
21648;DHT22;10985;54.182;7.890;2023-06-26T13:29:41;29.90;99.90
21648;DHT22;10985;54.182;7.890;2023-06-26T13:32:07;29.60;99.90
21648;DHT22;10985;54.182;7.890;2023-06-26T13:34:33;29.40;99.90
21648;DHT22;10985;54.182;7.890;2023-06-26T13:36:58;29.30;99.90
21648;DHT22;10985;54.182;7.890;2023-06-26T13:39:25;29.00;99.90
21648;DHT22;10985;54.182;7.890;2023-06-26T13:41:50;28.80;99.90
21648;DHT22;10985;54.182;7.890;2023-06-26T13:44:16;28.70;99.90
21648;DHT22;10985;54.182;7.890;2023-06-26T13:46:42;28.50;99.90
21648;DHT22;10985;54.182;7.890;2023-06-26T13:49:07;28.50;99.90
21648;DHT22;10985;54.182;7.890;2023-06-26T13:51:33;28.40;99.90
21648;DHT22;10985;54.182;7.890;2023-06-26T13:53:58;28.30;99.90
21648;DHT22;10985;54.182;7.890;2023-06-26T13:56:26;28.10;99.90
21648;DHT22;10985;54.182;7.890;2023-06-26T13:58:51;28.00;99.90
21648;DHT22;10985;54.182;7.890;2023-06-26T14:01:17;27.90;99.90
21648;DHT22;10985;54.182;7.890;2023-06-26T14:03:42;27.80;99.90
21648;DHT22;10985;54.182;7.890;2023-06-26T14:06:08;27.70;99.90
21648;DHT22;10985;54.182;7.890;2023-06-26T14:08:33;27.40;99.90
21648;DHT22;10985;54.182;7.890;2023-06-26T14:10:59;27.30;99.90
21648;DHT22;10985;54.182;7.890;2023-06-26T14:13:25;27.00;99.90
21648;DHT22;10985;54.182;7.890;2023-06-26T14:15:50;26.70;99.90
21648;DHT22;10985;54.182;7.890;2023-06-26T14:18:19;26.50;99.90
21648;DHT22;10985;54.182;7.890;2023-06-26T14:20:46;26.30;99.90
21648;DHT22;10985;54.182;7.890;2023-06-26T14:23:12;26.20;99.90
21648;DHT22;10985;54.182;7.890;2023-06-26T14:25:37;26.10;99.90
21648;DHT22;10985;54.182;7.890;2023-06-26T14:28:03;25.80;99.90
21648;DHT22;10985;54.182;7.890;2023-06-26T14:30:28;25.80;99.90
21648;DHT22;10985;54.182;7.890;2023-06-26T14:32:54;25.80;99.90
21648;DHT22;10985;54.182;7.890;2023-06-26T14:35:19;25.70;99.90
21648;DHT22;10985;54.182;7.890;2023-06-26T14:37:47;25.60;99.90
21648;DHT22;10985;54.182;7.890;2023-06-26T14:40:13;25.60;99.90
21648;DHT22;10985;54.182;7.890;2023-06-26T14:42:38;25.60;99.90
21648;DHT22;10985;54.182;7.890;2023-06-26T14:45:04;25.50;99.90
21648;DHT22;10985;54.182;7.890;2023-06-26T14:47:30;25.50;99.90
21648;DHT22;10985;54.182;7.890;2023-06-26T14:49:55;25.50;99.90
21648;DHT22;10985;54.182;7.890;2023-06-26T14:52:21;25.30;99.90
21648;DHT22;10985;54.182;7.890;2023-06-26T14:54:47;25.30;99.90
21648;DHT22;10985;54.182;7.890;2023-06-26T14:57:12;25.30;99.90
21648;DHT22;10985;54.182;7.890;2023-06-26T14:59:38;25.30;99.90
21648;DHT22;10985;54.182;7.890;2023-06-26T15:02:03;25.20;99.90
21648;DHT22;10985;54.182;7.890;2023-06-26T15:04:29;25.20;99.90
21648;DHT22;10985;54.182;7.890;2023-06-26T15:06:56;25.10;99.90
21648;DHT22;10985;54.182;7.890;2023-06-26T15:09:22;25.10;99.90
21648;DHT22;10985;54.182;7.890;2023-06-26T15:11:49;25.00;99.90
21648;DHT22;10985;54.182;7.890;2023-06-26T15:14:14;24.90;99.90
21648;DHT22;10985;54.182;7.890;2023-06-26T15:16:39;24.80;99.90
21648;DHT22;10985;54.182;7.890;2023-06-26T15:19:05;24.70;99.90
21648;DHT22;10985;54.182;7.890;2023-06-26T15:21:31;24.70;99.90
21648;DHT22;10985;54.182;7.890;2023-06-26T15:23:56;24.60;99.90
21648;DHT22;10985;54.182;7.890;2023-06-26T15:26:22;24.50;99.90
21648;DHT22;10985;54.182;7.890;2023-06-26T15:28:47;24.30;99.90
21648;DHT22;10985;54.182;7.890;2023-06-26T15:31:13;24.20;99.90
21648;DHT22;10985;54.182;7.890;2023-06-26T15:33:39;24.20;99.90
21648;DHT22;10985;54.182;7.890;2023-06-26T15:36:05;24.20;99.90